sensor_id;sensor_type;location;lat;lon;timestamp;P1;P2;P0
74589;PMS5003;63890;56.162;40.308;2022-09-30T00:01:16;9.00;9.00;6.00
74589;PMS5003;63890;56.162;40.308;2022-09-30T00:03:17;11.00;9.00;6.50
74589;PMS5003;63890;56.162;40.308;2022-09-30T00:05:17;12.75;11.00;6.00
74589;PMS5003;63890;56.162;40.308;2022-09-30T00:07:18;10.25;9.75;6.00
74589;PMS5003;63890;56.162;40.308;2022-09-30T00:09:18;10.00;10.00;7.00
74589;PMS5003;63890;56.162;40.308;2022-09-30T00:11:20;8.50;7.75;5.25
74589;PMS5003;63890;56.162;40.308;2022-09-30T00:13:21;7.50;6.25;4.25
74589;PMS5003;63890;56.162;40.308;2022-09-30T00:15:21;8.75;7.75;3.75
74589;PMS5003;63890;56.162;40.308;2022-09-30T00:17:22;8.25;6.50;4.00
74589;PMS5003;63890;56.162;40.308;2022-09-30T00:19:22;11.25;11.25;6.00
74589;PMS5003;63890;56.162;40.308;2022-09-30T00:21:23;11.00;11.00;6.50
74589;PMS5003;63890;56.162;40.308;2022-09-30T00:23:24;13.75;12.00;6.00
74589;PMS5003;63890;56.162;40.308;2022-09-30T00:25:24;10.75;9.50;5.75
74589;PMS5003;63890;56.162;40.308;2022-09-30T00:27:25;7.50;6.00;2.00
74589;PMS5003;63890;56.162;40.308;2022-09-30T00:29:25;9.50;9.50;5.75
74589;PMS5003;63890;56.162;40.308;2022-09-30T00:31:28;10.50;10.50;7.00
74589;PMS5003;63890;56.162;40.308;2022-09-30T00:33:28;7.50;6.50;3.50
74589;PMS5003;63890;56.162;40.308;2022-09-30T00:35:29;12.50;12.00;7.75
74589;PMS5003;63890;56.162;40.308;2022-09-30T00:37:29;9.25;9.25;6.50
74589;PMS5003;63890;56.162;40.308;2022-09-30T00:39:30;11.50;9.50;7.00
74589;PMS5003;63890;56.162;40.308;2022-09-30T00:41:30;11.50;11.00;6.00
74589;PMS5003;63890;56.162;40.308;2022-09-30T00:43:43;9.75;9.75;5.00
74589;PMS5003;63890;56.162;40.308;2022-09-30T00:45:55;13.25;10.50;7.00
74589;PMS5003;63890;56.162;40.308;2022-09-30T00:48:13;13.00;12.00;7.00
74589;PMS5003;63890;56.162;40.308;2022-09-30T00:50:31;9.25;9.25;6.25
74589;PMS5003;63890;56.162;40.308;2022-09-30T00:52:33;12.25;11.75;7.75
74589;PMS5003;63890;56.162;40.308;2022-09-30T00:54:34;10.25;10.25;5.00
74589;PMS5003;63890;56.162;40.308;2022-09-30T00:56:37;12.25;10.75;6.00
74589;PMS5003;63890;56.162;40.308;2022-09-30T00:58:50;11.50;9.25;6.25
74589;PMS5003;63890;56.162;40.308;2022-09-30T01:00:51;12.25;10.00;6.75
74589;PMS5003;63890;56.162;40.308;2022-09-30T01:02:51;14.00;13.25;8.75
74589;PMS5003;63890;56.162;40.308;2022-09-30T01:04:52;12.00;11.25;7.00
74589;PMS5003;63890;56.162;40.308;2022-09-30T01:06:54;10.25;9.00;4.50
74589;PMS5003;63890;56.162;40.308;2022-09-30T01:08:54;11.75;11.75;7.00
74589;PMS5003;63890;56.162;40.308;2022-09-30T01:10:57;10.75;10.75;7.25
74589;PMS5003;63890;56.162;40.308;2022-09-30T01:12:57;10.25;9.50;6.00
74589;PMS5003;63890;56.162;40.308;2022-09-30T01:14:58;9.00;7.75;4.25
74589;PMS5003;63890;56.162;40.308;2022-09-30T01:17:04;9.50;9.50;7.00
74589;PMS5003;63890;56.162;40.308;2022-09-30T01:19:17;10.50;10.50;5.75
74589;PMS5003;63890;56.162;40.308;2022-09-30T01:38:12;12.00;12.00;8.00
74589;PMS5003;63890;56.162;40.308;2022-09-30T01:47:14;11.50;11.50;7.50
74589;PMS5003;63890;56.162;40.308;2022-09-30T01:55:38;10.75;10.00;6.25
74589;PMS5003;63890;56.162;40.308;2022-09-30T01:57:44;13.25;12.00;7.25
74589;PMS5003;63890;56.162;40.308;2022-09-30T01:59:49;12.00;11.00;6.50
74589;PMS5003;63890;56.162;40.308;2022-09-30T02:01:56;12.25;10.00;6.25
74589;PMS5003;63890;56.162;40.308;2022-09-30T02:04:00;11.00;11.00;6.75
74589;PMS5003;63890;56.162;40.308;2022-09-30T02:06:09;6.75;6.75;4.00
74589;PMS5003;63890;56.162;40.308;2022-09-30T02:08:16;8.00;8.00;5.00
74589;PMS5003;63890;56.162;40.308;2022-09-30T02:12:18;12.50;10.75;7.25
74589;PMS5003;63890;56.162;40.308;2022-09-30T02:14:34;14.25;11.50;7.00
74589;PMS5003;63890;56.162;40.308;2022-09-30T02:16:37;11.75;11.75;7.25
74589;PMS5003;63890;56.162;40.308;2022-09-30T02:18:43;8.25;8.25;4.50
74589;PMS5003;63890;56.162;40.308;2022-09-30T02:20:46;10.75;10.25;6.00
74589;PMS5003;63890;56.162;40.308;2022-09-30T02:22:49;10.00;9.00;4.25
74589;PMS5003;63890;56.162;40.308;2022-09-30T02:24:54;13.00;11.75;9.00
74589;PMS5003;63890;56.162;40.308;2022-09-30T02:26:55;12.00;11.00;6.00
74589;PMS5003;63890;56.162;40.308;2022-09-30T02:29:08;11.25;11.25;6.50
74589;PMS5003;63890;56.162;40.308;2022-09-30T02:31:11;11.75;11.50;8.00
74589;PMS5003;63890;56.162;40.308;2022-09-30T02:33:15;11.50;10.00;7.00
74589;PMS5003;63890;56.162;40.308;2022-09-30T02:35:37;12.50;11.00;5.75
74589;PMS5003;63890;56.162;40.308;2022-09-30T02:37:40;11.50;10.25;5.00
74589;PMS5003;63890;56.162;40.308;2022-09-30T02:40:03;10.25;10.25;6.50
74589;PMS5003;63890;56.162;40.308;2022-09-30T02:42:08;11.25;11.25;5.25
74589;PMS5003;63890;56.162;40.308;2022-09-30T02:44:10;12.00;12.00;6.75
74589;PMS5003;63890;56.162;40.308;2022-09-30T02:54:34;12.25;12.25;7.50
74589;PMS5003;63890;56.162;40.308;2022-09-30T02:56:48;13.50;13.25;8.00
74589;PMS5003;63890;56.162;40.308;2022-09-30T02:58:50;13.25;13.25;8.00
74589;PMS5003;63890;56.162;40.308;2022-09-30T03:00:52;12.00;10.25;4.00
74589;PMS5003;63890;56.162;40.308;2022-09-30T03:02:56;12.50;11.25;6.25
74589;PMS5003;63890;56.162;40.308;2022-09-30T03:04:58;12.75;12.75;7.75
74589;PMS5003;63890;56.162;40.308;2022-09-30T03:06:59;15.25;14.25;7.00
74589;PMS5003;63890;56.162;40.308;2022-09-30T03:09:00;13.00;12.00;6.75
74589;PMS5003;63890;56.162;40.308;2022-09-30T03:11:00;13.75;13.75;8.50
74589;PMS5003;63890;56.162;40.308;2022-09-30T03:13:08;15.00;13.25;7.25
74589;PMS5003;63890;56.162;40.308;2022-09-30T03:15:27;11.00;10.50;5.25
74589;PMS5003;63890;56.162;40.308;2022-09-30T03:25:55;19.00;15.25;9.25
74589;PMS5003;63890;56.162;40.308;2022-09-30T03:28:21;11.75;10.75;5.50
74589;PMS5003;63890;56.162;40.308;2022-09-30T03:30:23;15.75;14.50;8.00
74589;PMS5003;63890;56.162;40.308;2022-09-30T03:37:15;15.00;14.00;9.00
74589;PMS5003;63890;56.162;40.308;2022-09-30T03:39:24;16.00;15.75;8.50
74589;PMS5003;63890;56.162;40.308;2022-09-30T03:43:30;14.75;14.50;8.00
74589;PMS5003;63890;56.162;40.308;2022-09-30T03:45:34;14.00;13.00;6.25
74589;PMS5003;63890;56.162;40.308;2022-09-30T03:47:38;16.75;15.25;8.25
74589;PMS5003;63890;56.162;40.308;2022-09-30T03:49:41;14.50;13.50;8.00
74589;PMS5003;63890;56.162;40.308;2022-09-30T03:51:44;15.25;13.25;8.00
74589;PMS5003;63890;56.162;40.308;2022-09-30T03:53:45;14.75;14.75;8.25
74589;PMS5003;63890;56.162;40.308;2022-09-30T03:55:50;15.50;14.75;8.75
74589;PMS5003;63890;56.162;40.308;2022-09-30T03:57:50;15.75;13.75;10.00
74589;PMS5003;63890;56.162;40.308;2022-09-30T03:59:51;18.75;16.00;9.00
74589;PMS5003;63890;56.162;40.308;2022-09-30T04:01:51;15.00;13.00;8.50
74589;PMS5003;63890;56.162;40.308;2022-09-30T04:03:52;20.50;15.75;9.00
74589;PMS5003;63890;56.162;40.308;2022-09-30T04:05:53;16.25;15.75;8.25
74589;PMS5003;63890;56.162;40.308;2022-09-30T04:07:53;17.75;15.50;8.50
74589;PMS5003;63890;56.162;40.308;2022-09-30T04:09:54;20.25;17.25;9.00
74589;PMS5003;63890;56.162;40.308;2022-09-30T04:11:55;17.75;17.50;11.00
74589;PMS5003;63890;56.162;40.308;2022-09-30T04:13:55;17.00;17.00;10.50
74589;PMS5003;63890;56.162;40.308;2022-09-30T04:15:56;16.00;16.00;7.25
74589;PMS5003;63890;56.162;40.308;2022-09-30T04:17:57;15.25;12.50;6.25
74589;PMS5003;63890;56.162;40.308;2022-09-30T04:19:58;18.00;15.50;9.50
74589;PMS5003;63890;56.162;40.308;2022-09-30T04:21:58;16.25;15.00;9.50
74589;PMS5003;63890;56.162;40.308;2022-09-30T04:23:59;21.25;20.25;11.00
74589;PMS5003;63890;56.162;40.308;2022-09-30T04:25:59;17.75;15.25;8.50
74589;PMS5003;63890;56.162;40.308;2022-09-30T04:28:01;21.75;19.25;11.00
74589;PMS5003;63890;56.162;40.308;2022-09-30T04:30:02;16.50;15.25;8.25
74589;PMS5003;63890;56.162;40.308;2022-09-30T04:32:02;13.50;13.25;6.25
74589;PMS5003;63890;56.162;40.308;2022-09-30T04:34:02;19.00;17.25;10.00
74589;PMS5003;63890;56.162;40.308;2022-09-30T04:36:03;20.50;19.25;11.25
74589;PMS5003;63890;56.162;40.308;2022-09-30T04:38:04;18.25;17.25;10.00
74589;PMS5003;63890;56.162;40.308;2022-09-30T04:40:06;18.00;17.25;9.00
74589;PMS5003;63890;56.162;40.308;2022-09-30T04:42:08;19.25;18.25;10.75
74589;PMS5003;63890;56.162;40.308;2022-09-30T04:44:10;22.00;19.50;11.25
74589;PMS5003;63890;56.162;40.308;2022-09-30T04:46:14;21.25;21.25;12.00
74589;PMS5003;63890;56.162;40.308;2022-09-30T04:48:15;21.50;18.75;10.00
74589;PMS5003;63890;56.162;40.308;2022-09-30T04:50:15;17.25;17.00;10.00
74589;PMS5003;63890;56.162;40.308;2022-09-30T04:52:16;20.00;19.00;11.50
74589;PMS5003;63890;56.162;40.308;2022-09-30T04:54:16;14.75;13.50;10.00
74589;PMS5003;63890;56.162;40.308;2022-09-30T04:56:18;16.25;16.25;8.75
74589;PMS5003;63890;56.162;40.308;2022-09-30T04:58:18;18.00;16.75;8.75
74589;PMS5003;63890;56.162;40.308;2022-09-30T05:00:19;22.25;18.25;11.25
74589;PMS5003;63890;56.162;40.308;2022-09-30T05:02:19;21.75;20.25;10.25
74589;PMS5003;63890;56.162;40.308;2022-09-30T05:04:20;22.25;20.75;12.00
74589;PMS5003;63890;56.162;40.308;2022-09-30T05:06:20;18.25;17.00;10.00
74589;PMS5003;63890;56.162;40.308;2022-09-30T05:08:21;19.75;17.75;10.00
74589;PMS5003;63890;56.162;40.308;2022-09-30T05:10:22;19.25;18.25;9.25
74589;PMS5003;63890;56.162;40.308;2022-09-30T05:12:22;18.75;17.25;9.75
74589;PMS5003;63890;56.162;40.308;2022-09-30T05:14:22;20.75;20.75;12.75
74589;PMS5003;63890;56.162;40.308;2022-09-30T05:16:23;21.75;19.75;11.75
74589;PMS5003;63890;56.162;40.308;2022-09-30T05:18:23;16.00;14.75;4.75
74589;PMS5003;63890;56.162;40.308;2022-09-30T05:20:27;21.75;19.00;12.00
74589;PMS5003;63890;56.162;40.308;2022-09-30T05:22:27;19.00;17.00;9.00
74589;PMS5003;63890;56.162;40.308;2022-09-30T05:24:28;19.50;18.75;10.75
74589;PMS5003;63890;56.162;40.308;2022-09-30T05:26:30;24.50;24.00;13.00
74589;PMS5003;63890;56.162;40.308;2022-09-30T05:28:31;23.00;20.25;11.50
74589;PMS5003;63890;56.162;40.308;2022-09-30T05:30:31;21.75;19.00;10.50
74589;PMS5003;63890;56.162;40.308;2022-09-30T05:32:32;22.25;20.25;10.50
74589;PMS5003;63890;56.162;40.308;2022-09-30T05:34:32;18.50;17.75;9.25
74589;PMS5003;63890;56.162;40.308;2022-09-30T05:36:33;24.25;21.75;9.25
74589;PMS5003;63890;56.162;40.308;2022-09-30T05:38:33;20.00;18.50;11.00
74589;PMS5003;63890;56.162;40.308;2022-09-30T05:40:35;20.25;19.50;12.00
74589;PMS5003;63890;56.162;40.308;2022-09-30T05:42:36;23.25;20.75;12.50
74589;PMS5003;63890;56.162;40.308;2022-09-30T05:44:36;21.25;18.75;10.25
74589;PMS5003;63890;56.162;40.308;2022-09-30T05:46:37;18.50;17.50;7.75
74589;PMS5003;63890;56.162;40.308;2022-09-30T05:48:37;23.25;21.00;11.50
74589;PMS5003;63890;56.162;40.308;2022-09-30T05:50:37;21.25;19.50;12.25
74589;PMS5003;63890;56.162;40.308;2022-09-30T05:52:38;18.75;15.75;10.00
74589;PMS5003;63890;56.162;40.308;2022-09-30T05:54:39;25.50;23.50;13.00
74589;PMS5003;63890;56.162;40.308;2022-09-30T05:56:39;23.50;21.50;10.00
74589;PMS5003;63890;56.162;40.308;2022-09-30T05:58:39;25.25;22.75;12.75
74589;PMS5003;63890;56.162;40.308;2022-09-30T06:00:41;18.50;16.00;9.75
74589;PMS5003;63890;56.162;40.308;2022-09-30T06:02:42;19.25;17.75;10.75
74589;PMS5003;63890;56.162;40.308;2022-09-30T06:04:43;17.75;17.75;10.75
74589;PMS5003;63890;56.162;40.308;2022-09-30T06:06:43;20.75;19.75;10.25
74589;PMS5003;63890;56.162;40.308;2022-09-30T06:08:44;18.25;17.00;10.75
74589;PMS5003;63890;56.162;40.308;2022-09-30T06:10:44;20.00;18.75;12.00
74589;PMS5003;63890;56.162;40.308;2022-09-30T06:12:45;19.00;16.50;9.00
74589;PMS5003;63890;56.162;40.308;2022-09-30T06:14:46;24.25;21.50;11.75
74589;PMS5003;63890;56.162;40.308;2022-09-30T06:16:46;21.75;19.00;11.00
74589;PMS5003;63890;56.162;40.308;2022-09-30T06:18:47;19.75;18.75;11.50
74589;PMS5003;63890;56.162;40.308;2022-09-30T06:20:47;22.00;21.00;10.25
74589;PMS5003;63890;56.162;40.308;2022-09-30T06:22:48;20.50;19.25;12.00
74589;PMS5003;63890;56.162;40.308;2022-09-30T06:24:48;19.75;19.75;11.25
74589;PMS5003;63890;56.162;40.308;2022-09-30T06:26:48;20.25;19.00;11.50
74589;PMS5003;63890;56.162;40.308;2022-09-30T06:28:49;21.25;19.25;11.75
74589;PMS5003;63890;56.162;40.308;2022-09-30T06:30:50;19.75;19.75;10.75
74589;PMS5003;63890;56.162;40.308;2022-09-30T06:32:51;22.50;21.75;12.00
74589;PMS5003;63890;56.162;40.308;2022-09-30T06:34:53;14.75;14.75;10.75
74589;PMS5003;63890;56.162;40.308;2022-09-30T06:36:56;18.50;17.25;10.50
74589;PMS5003;63890;56.162;40.308;2022-09-30T06:38:56;20.75;20.25;11.25
74589;PMS5003;63890;56.162;40.308;2022-09-30T06:41:00;19.75;19.00;11.75
74589;PMS5003;63890;56.162;40.308;2022-09-30T06:43:00;24.00;21.00;11.00
74589;PMS5003;63890;56.162;40.308;2022-09-30T06:45:01;23.25;19.75;11.25
74589;PMS5003;63890;56.162;40.308;2022-09-30T06:47:01;15.25;14.25;7.50
74589;PMS5003;63890;56.162;40.308;2022-09-30T06:49:02;16.50;16.25;10.25
74589;PMS5003;63890;56.162;40.308;2022-09-30T06:51:03;21.75;19.25;11.00
74589;PMS5003;63890;56.162;40.308;2022-09-30T06:53:04;17.00;15.50;9.25
74589;PMS5003;63890;56.162;40.308;2022-09-30T06:55:05;23.50;21.25;12.25
74589;PMS5003;63890;56.162;40.308;2022-09-30T06:57:05;19.25;18.00;11.00
74589;PMS5003;63890;56.162;40.308;2022-09-30T06:59:06;20.75;20.75;12.00
74589;PMS5003;63890;56.162;40.308;2022-09-30T07:01:06;22.25;20.00;11.75
74589;PMS5003;63890;56.162;40.308;2022-09-30T07:03:07;14.00;13.50;8.75
74589;PMS5003;63890;56.162;40.308;2022-09-30T07:05:21;19.50;18.75;10.75
74589;PMS5003;63890;56.162;40.308;2022-09-30T07:07:22;23.50;21.00;12.00
74589;PMS5003;63890;56.162;40.308;2022-09-30T07:09:22;24.25;20.00;10.00
74589;PMS5003;63890;56.162;40.308;2022-09-30T07:11:23;18.75;17.75;12.75
74589;PMS5003;63890;56.162;40.308;2022-09-30T07:13:24;20.25;19.00;11.25
74589;PMS5003;63890;56.162;40.308;2022-09-30T07:15:24;20.00;18.00;10.75
74589;PMS5003;63890;56.162;40.308;2022-09-30T07:17:25;22.50;20.75;11.50
74589;PMS5003;63890;56.162;40.308;2022-09-30T07:19:26;16.75;15.50;8.75
74589;PMS5003;63890;56.162;40.308;2022-09-30T07:21:26;24.00;19.00;12.25
74589;PMS5003;63890;56.162;40.308;2022-09-30T07:23:27;17.75;15.00;7.50
74589;PMS5003;63890;56.162;40.308;2022-09-30T07:25:27;18.50;18.50;12.25
74589;PMS5003;63890;56.162;40.308;2022-09-30T07:27:28;20.75;19.25;11.75
74589;PMS5003;63890;56.162;40.308;2022-09-30T07:29:29;18.00;16.50;11.00
74589;PMS5003;63890;56.162;40.308;2022-09-30T07:31:30;19.75;17.00;10.00
74589;PMS5003;63890;56.162;40.308;2022-09-30T07:33:30;23.50;22.00;12.50
74589;PMS5003;63890;56.162;40.308;2022-09-30T07:35:31;25.00;21.50;11.75
74589;PMS5003;63890;56.162;40.308;2022-09-30T07:37:32;10.75;10.75;7.50
74589;PMS5003;63890;56.162;40.308;2022-09-30T07:39:35;19.75;19.00;9.75
74589;PMS5003;63890;56.162;40.308;2022-09-30T07:41:36;21.75;20.50;12.00
74589;PMS5003;63890;56.162;40.308;2022-09-30T07:43:38;21.75;19.00;13.50
74589;PMS5003;63890;56.162;40.308;2022-09-30T07:45:39;18.25;16.00;11.00
74589;PMS5003;63890;56.162;40.308;2022-09-30T07:47:39;20.75;20.75;13.25
74589;PMS5003;63890;56.162;40.308;2022-09-30T07:49:40;21.25;19.25;11.50
74589;PMS5003;63890;56.162;40.308;2022-09-30T07:51:41;17.50;16.75;10.75
74589;PMS5003;63890;56.162;40.308;2022-09-30T07:53:46;20.75;17.75;10.00
74589;PMS5003;63890;56.162;40.308;2022-09-30T07:55:46;19.75;17.25;11.75
74589;PMS5003;63890;56.162;40.308;2022-09-30T07:57:47;23.75;20.25;10.50
74589;PMS5003;63890;56.162;40.308;2022-09-30T07:59:47;20.25;17.75;11.00
74589;PMS5003;63890;56.162;40.308;2022-09-30T08:01:47;16.75;15.00;9.25
74589;PMS5003;63890;56.162;40.308;2022-09-30T08:03:51;18.00;17.00;11.00
74589;PMS5003;63890;56.162;40.308;2022-09-30T08:05:51;17.25;16.25;9.00
74589;PMS5003;63890;56.162;40.308;2022-09-30T08:07:52;15.75;15.25;10.00
74589;PMS5003;63890;56.162;40.308;2022-09-30T08:09:52;18.25;18.25;12.25
74589;PMS5003;63890;56.162;40.308;2022-09-30T08:11:53;19.50;15.50;9.25
74589;PMS5003;63890;56.162;40.308;2022-09-30T08:13:54;19.00;16.75;10.00
74589;PMS5003;63890;56.162;40.308;2022-09-30T08:15:55;13.50;13.50;9.50
74589;PMS5003;63890;56.162;40.308;2022-09-30T08:17:55;19.50;16.50;10.00
74589;PMS5003;63890;56.162;40.308;2022-09-30T08:19:55;19.75;17.75;11.50
74589;PMS5003;63890;56.162;40.308;2022-09-30T08:21:56;18.50;16.50;10.00
74589;PMS5003;63890;56.162;40.308;2022-09-30T08:23:56;16.25;16.00;8.75
74589;PMS5003;63890;56.162;40.308;2022-09-30T08:26:01;16.00;15.50;8.25
74589;PMS5003;63890;56.162;40.308;2022-09-30T08:28:02;18.00;16.00;10.00
74589;PMS5003;63890;56.162;40.308;2022-09-30T08:30:02;19.00;18.50;11.25
74589;PMS5003;63890;56.162;40.308;2022-09-30T08:32:03;20.00;19.00;12.00
74589;PMS5003;63890;56.162;40.308;2022-09-30T08:34:03;21.50;20.75;10.50
74589;PMS5003;63890;56.162;40.308;2022-09-30T08:36:08;21.25;19.50;11.50
74589;PMS5003;63890;56.162;40.308;2022-09-30T08:38:08;16.50;15.00;8.00
74589;PMS5003;63890;56.162;40.308;2022-09-30T08:40:13;17.25;16.50;8.25
74589;PMS5003;63890;56.162;40.308;2022-09-30T08:44:26;17.00;15.50;8.75
74589;PMS5003;63890;56.162;40.308;2022-09-30T08:53:30;19.50;18.75;12.00
74589;PMS5003;63890;56.162;40.308;2022-09-30T08:55:34;19.50;19.00;11.00
74589;PMS5003;63890;56.162;40.308;2022-09-30T08:57:39;16.75;16.50;10.00
74589;PMS5003;63890;56.162;40.308;2022-09-30T08:59:47;18.00;18.00;10.50
74589;PMS5003;63890;56.162;40.308;2022-09-30T09:01:48;13.25;13.25;6.50
74589;PMS5003;63890;56.162;40.308;2022-09-30T09:03:50;13.50;13.25;6.75
74589;PMS5003;63890;56.162;40.308;2022-09-30T09:06:07;14.75;13.50;8.75
74589;PMS5003;63890;56.162;40.308;2022-09-30T09:08:18;16.50;15.50;9.75
74589;PMS5003;63890;56.162;40.308;2022-09-30T09:10:32;18.50;15.25;9.25
74589;PMS5003;63890;56.162;40.308;2022-09-30T09:12:49;18.75;16.25;10.50
74589;PMS5003;63890;56.162;40.308;2022-09-30T09:15:09;14.75;14.50;9.00
74589;PMS5003;63890;56.162;40.308;2022-09-30T09:17:36;15.75;13.75;8.00
74589;PMS5003;63890;56.162;40.308;2022-09-30T09:19:37;19.50;18.75;10.75
74589;PMS5003;63890;56.162;40.308;2022-09-30T09:21:54;14.25;13.75;8.00
74589;PMS5003;63890;56.162;40.308;2022-09-30T09:23:56;15.75;15.25;10.00
74589;PMS5003;63890;56.162;40.308;2022-09-30T09:25:59;10.75;10.75;9.00
74589;PMS5003;63890;56.162;40.308;2022-09-30T09:28:01;15.75;15.00;10.00
74589;PMS5003;63890;56.162;40.308;2022-09-30T09:32:12;17.25;17.25;9.00
74589;PMS5003;63890;56.162;40.308;2022-09-30T09:34:13;17.25;16.75;10.00
74589;PMS5003;63890;56.162;40.308;2022-09-30T09:45:22;11.00;11.00;6.00
74589;PMS5003;63890;56.162;40.308;2022-09-30T09:47:25;15.25;15.25;9.25
74589;PMS5003;63890;56.162;40.308;2022-09-30T09:49:27;16.75;15.75;10.25
74589;PMS5003;63890;56.162;40.308;2022-09-30T09:51:30;16.00;14.00;9.75
74589;PMS5003;63890;56.162;40.308;2022-09-30T09:55:32;15.75;14.75;9.00
74589;PMS5003;63890;56.162;40.308;2022-09-30T09:57:34;16.75;14.25;10.00
74589;PMS5003;63890;56.162;40.308;2022-09-30T09:59:34;18.50;16.25;10.75
74589;PMS5003;63890;56.162;40.308;2022-09-30T10:01:36;14.00;14.00;7.00
74589;PMS5003;63890;56.162;40.308;2022-09-30T10:03:37;16.00;15.50;9.75
74589;PMS5003;63890;56.162;40.308;2022-09-30T10:05:38;17.00;15.00;9.50
74589;PMS5003;63890;56.162;40.308;2022-09-30T10:07:38;18.00;17.50;10.75
74589;PMS5003;63890;56.162;40.308;2022-09-30T10:09:39;16.50;13.00;8.00
74589;PMS5003;63890;56.162;40.308;2022-09-30T10:11:40;15.75;14.75;8.75
74589;PMS5003;63890;56.162;40.308;2022-09-30T10:13:41;16.25;15.00;8.75
74589;PMS5003;63890;56.162;40.308;2022-09-30T10:15:42;12.25;11.00;8.00
74589;PMS5003;63890;56.162;40.308;2022-09-30T10:17:42;16.75;15.25;9.00
74589;PMS5003;63890;56.162;40.308;2022-09-30T10:19:49;15.50;13.50;9.00
74589;PMS5003;63890;56.162;40.308;2022-09-30T10:21:52;12.50;12.50;7.50
74589;PMS5003;63890;56.162;40.308;2022-09-30T10:24:32;14.50;12.75;8.75
74589;PMS5003;63890;56.162;40.308;2022-09-30T10:26:34;16.25;15.25;9.00
74589;PMS5003;63890;56.162;40.308;2022-09-30T10:28:47;13.25;13.25;7.00
74589;PMS5003;63890;56.162;40.308;2022-09-30T10:30:57;14.50;14.00;9.25
74589;PMS5003;63890;56.162;40.308;2022-09-30T10:32:59;15.75;13.75;9.00
74589;PMS5003;63890;56.162;40.308;2022-09-30T10:35:05;14.00;13.50;8.25
74589;PMS5003;63890;56.162;40.308;2022-09-30T10:37:07;14.50;13.75;9.00
74589;PMS5003;63890;56.162;40.308;2022-09-30T10:39:20;12.25;10.50;7.00
74589;PMS5003;63890;56.162;40.308;2022-09-30T10:41:24;15.00;14.00;9.50
74589;PMS5003;63890;56.162;40.308;2022-09-30T10:43:42;14.75;13.50;9.00
74589;PMS5003;63890;56.162;40.308;2022-09-30T10:45:43;15.25;13.25;9.50
74589;PMS5003;63890;56.162;40.308;2022-09-30T10:47:44;19.25;15.50;9.25
74589;PMS5003;63890;56.162;40.308;2022-09-30T10:51:47;18.00;15.75;11.00
74589;PMS5003;63890;56.162;40.308;2022-09-30T10:53:47;13.25;13.25;9.00
74589;PMS5003;63890;56.162;40.308;2022-09-30T10:55:48;15.75;14.50;9.00
74589;PMS5003;63890;56.162;40.308;2022-09-30T10:57:49;16.75;15.50;9.75
74589;PMS5003;63890;56.162;40.308;2022-09-30T10:59:51;15.50;14.00;10.00
74589;PMS5003;63890;56.162;40.308;2022-09-30T11:01:55;16.25;14.00;7.25
74589;PMS5003;63890;56.162;40.308;2022-09-30T11:04:04;16.00;15.00;8.50
74589;PMS5003;63890;56.162;40.308;2022-09-30T11:06:06;17.00;15.50;10.25
74589;PMS5003;63890;56.162;40.308;2022-09-30T11:08:18;13.00;12.00;7.50
74589;PMS5003;63890;56.162;40.308;2022-09-30T11:11:23;16.50;15.50;11.00
74589;PMS5003;63890;56.162;40.308;2022-09-30T11:19:45;15.25;15.25;9.00
74589;PMS5003;63890;56.162;40.308;2022-09-30T11:21:49;15.75;14.75;9.00
74589;PMS5003;63890;56.162;40.308;2022-09-30T11:23:55;19.25;18.25;11.50
74589;PMS5003;63890;56.162;40.308;2022-09-30T11:30:17;13.75;12.25;8.25
74589;PMS5003;63890;56.162;40.308;2022-09-30T11:32:34;16.50;16.00;11.50
74589;PMS5003;63890;56.162;40.308;2022-09-30T11:41:08;15.25;15.00;9.25
74589;PMS5003;63890;56.162;40.308;2022-09-30T11:56:36;16.00;14.00;9.75
74589;PMS5003;63890;56.162;40.308;2022-09-30T11:58:34;18.50;17.00;11.50
74589;PMS5003;63890;56.162;40.308;2022-09-30T12:00:38;16.00;16.00;10.00
74589;PMS5003;63890;56.162;40.308;2022-09-30T12:02:41;12.50;11.50;7.00
74589;PMS5003;63890;56.162;40.308;2022-09-30T12:04:43;18.75;17.00;11.00
74589;PMS5003;63890;56.162;40.308;2022-09-30T12:06:53;10.50;9.50;5.00
74589;PMS5003;63890;56.162;40.308;2022-09-30T12:09:01;18.00;17.75;12.00
74589;PMS5003;63890;56.162;40.308;2022-09-30T12:11:12;15.50;15.50;11.00
74589;PMS5003;63890;56.162;40.308;2022-09-30T12:13:34;16.00;15.25;10.00
74589;PMS5003;63890;56.162;40.308;2022-09-30T12:15:36;20.50;19.50;12.25
74589;PMS5003;63890;56.162;40.308;2022-09-30T12:17:40;15.00;14.50;10.50
74589;PMS5003;63890;56.162;40.308;2022-09-30T12:19:44;17.50;15.50;10.00
74589;PMS5003;63890;56.162;40.308;2022-09-30T12:22:01;20.75;19.00;11.00
74589;PMS5003;63890;56.162;40.308;2022-09-30T12:26:34;17.00;15.75;12.25
74589;PMS5003;63890;56.162;40.308;2022-09-30T12:33:38;16.50;15.75;11.25
74589;PMS5003;63890;56.162;40.308;2022-09-30T12:46:44;18.00;17.50;10.50
74589;PMS5003;63890;56.162;40.308;2022-09-30T12:48:52;18.00;17.00;12.50
74589;PMS5003;63890;56.162;40.308;2022-09-30T12:50:55;19.50;19.50;11.75
74589;PMS5003;63890;56.162;40.308;2022-09-30T12:52:57;21.25;20.00;12.00
74589;PMS5003;63890;56.162;40.308;2022-09-30T12:55:00;16.00;14.50;9.25
74589;PMS5003;63890;56.162;40.308;2022-09-30T12:57:02;16.50;16.50;10.50
74589;PMS5003;63890;56.162;40.308;2022-09-30T12:59:03;18.00;18.00;10.75
74589;PMS5003;63890;56.162;40.308;2022-09-30T13:01:11;24.25;19.75;12.00
74589;PMS5003;63890;56.162;40.308;2022-09-30T13:03:16;22.25;21.50;14.00
74589;PMS5003;63890;56.162;40.308;2022-09-30T13:07:26;20.25;20.25;12.75
74589;PMS5003;63890;56.162;40.308;2022-09-30T13:11:31;18.50;17.25;12.50
74589;PMS5003;63890;56.162;40.308;2022-09-30T13:13:32;21.25;21.25;14.00
74589;PMS5003;63890;56.162;40.308;2022-09-30T13:15:37;15.25;14.25;10.00
74589;PMS5003;63890;56.162;40.308;2022-09-30T13:17:41;21.00;21.00;13.00
74589;PMS5003;63890;56.162;40.308;2022-09-30T13:21:43;18.50;18.50;11.00
74589;PMS5003;63890;56.162;40.308;2022-09-30T13:25:53;19.25;18.50;12.75
74589;PMS5003;63890;56.162;40.308;2022-09-30T13:28:27;22.00;18.50;12.75
74589;PMS5003;63890;56.162;40.308;2022-09-30T13:32:39;18.25;18.25;11.75
74589;PMS5003;63890;56.162;40.308;2022-09-30T13:34:48;16.50;15.00;11.25
74589;PMS5003;63890;56.162;40.308;2022-09-30T13:41:18;19.25;18.00;11.25
74589;PMS5003;63890;56.162;40.308;2022-09-30T13:45:32;14.25;14.25;9.25
74589;PMS5003;63890;56.162;40.308;2022-09-30T13:49:44;17.25;17.00;13.00
74589;PMS5003;63890;56.162;40.308;2022-09-30T13:51:46;22.25;19.00;11.00
74589;PMS5003;63890;56.162;40.308;2022-09-30T13:53:47;20.00;20.00;13.00
74589;PMS5003;63890;56.162;40.308;2022-09-30T13:55:50;17.50;16.50;11.50
74589;PMS5003;63890;56.162;40.308;2022-09-30T13:58:16;13.50;12.50;5.00